地図

経路データ

SID SEASON NUMBER BASIN SUBBASIN NAME ISO_TIME NATURE LAT LON WMO_WIND WMO_PRES WMO_AGENCY TRACK_TYPE DIST2LAND LANDFALL IFLAG USA_AGENCY USA_ATCF_ID USA_LAT USA_LON USA_RECORD USA_STATUS USA_WIND USA_PRES USA_SSHS USA_R34_NE USA_R34_SE USA_R34_SW USA_R34_NW USA_R50_NE USA_R50_SE USA_R50_SW USA_R50_NW USA_R64_NE USA_R64_SE USA_R64_SW USA_R64_NW USA_POCI USA_ROCI USA_RMW USA_EYE TOKYO_LAT TOKYO_LON TOKYO_GRADE TOKYO_WIND TOKYO_PRES TOKYO_R50_DIR TOKYO_R50_LONG TOKYO_R50_SHORT TOKYO_R30_DIR TOKYO_R30_LONG TOKYO_R30_SHORT TOKYO_LAND CMA_LAT CMA_LON CMA_CAT CMA_WIND CMA_PRES HKO_LAT HKO_LON HKO_CAT HKO_WIND HKO_PRES NEWDELHI_LAT NEWDELHI_LON NEWDELHI_GRADE NEWDELHI_WIND NEWDELHI_PRES NEWDELHI_CI NEWDELHI_DP NEWDELHI_POCI REUNION_LAT REUNION_LON REUNION_TYPE REUNION_WIND REUNION_PRES REUNION_TNUM REUNION_CI REUNION_RMW REUNION_R34_NE REUNION_R34_SE REUNION_R34_SW REUNION_R34_NW REUNION_R50_NE REUNION_R50_SE REUNION_R50_SW REUNION_R50_NW REUNION_R64_NE REUNION_R64_SE REUNION_R64_SW REUNION_R64_NW BOM_LAT BOM_LON BOM_TYPE BOM_WIND BOM_PRES BOM_TNUM BOM_CI BOM_RMW BOM_R34_NE BOM_R34_SE BOM_R34_SW BOM_R34_NW BOM_R50_NE BOM_R50_SE BOM_R50_SW BOM_R50_NW BOM_R64_NE BOM_R64_SE BOM_R64_SW BOM_R64_NW BOM_ROCI BOM_POCI BOM_EYE BOM_POS_METHOD BOM_PRES_METHOD NADI_LAT NADI_LON NADI_CAT NADI_WIND NADI_PRES WELLINGTON_LAT WELLINGTON_LON WELLINGTON_WIND WELLINGTON_PRES DS824_LAT DS824_LON DS824_STAGE DS824_WIND DS824_PRES TD9636_LAT TD9636_LON TD9636_STAGE TD9636_WIND TD9636_PRES TD9635_LAT TD9635_LON TD9635_WIND TD9635_PRES TD9635_ROCI NEUMANN_LAT NEUMANN_LON NEUMANN_CLASS NEUMANN_WIND NEUMANN_PRES MLC_LAT MLC_LON MLC_CLASS MLC_WIND MLC_PRES USA_GUST BOM_GUST BOM_GUST_PER REUNION_GUST REUNION_GUST_PER USA_SEAHGT USA_SEARAD_NE USA_SEARAD_SE USA_SEARAD_SW USA_SEARAD_NW STORM_SPEED STORM_DIR
1964283N15277 1964 95 NA CS ISBELL 1964-10-09 06:00:00 TS 15.5000 -83.0000 30 hurdat_atl main 48 39 O_____________ hurdat_atl AL111964 15.5000 -83.0000 TD 30 -1 8 311
1964283N15277 1964 95 NA CS ISBELL 1964-10-09 09:00:00 TS 15.7501 -83.2974 main 56 55 P_____________ AL111964 15.7501 -83.2974 TD 30 -1 8 311
1964283N15277 1964 95 NA CS ISBELL 1964-10-09 12:00:00 TS 16.0000 -83.6000 30 hurdat_atl main 61 55 O_____________ hurdat_atl AL111964 16.0000 -83.6000 TD 30 -1 8 310
1964283N15277 1964 95 NA CS ISBELL 1964-10-09 15:00:00 TS 16.2500 -83.9075 main 61 61 P_____________ AL111964 16.2500 -83.9075 TD 30 -1 8 311
1964283N15277 1964 95 NA CS ISBELL 1964-10-09 18:00:00 TS 16.5000 -84.2000 30 hurdat_atl main 79 79 O_____________ hurdat_atl AL111964 16.5000 -84.2000 TD 30 -1 7 312
1964283N15277 1964 95 NA CS ISBELL 1964-10-09 21:00:00 TS 16.7425 -84.4725 main 92 92 P_____________ AL111964 16.7425 -84.4725 TD 30 -1 7 316
1964283N15277 1964 95 NA CS ISBELL 1964-10-10 00:00:00 TS 17.0000 -84.7000 30 hurdat_atl main 123 123 O_____________ hurdat_atl AL111964 17.0000 -84.7000 TD 30 -1 7 325
1964283N15277 1964 95 NA CS ISBELL 1964-10-10 03:00:00 TS 17.3000 -84.8800 main 156 156 P_____________ AL111964 17.3000 -84.8800 TD 30 -1 7 335
1964283N15277 1964 95 NA CS ISBELL 1964-10-10 06:00:00 TS 17.6000 -85.0000 30 hurdat_atl main 190 190 O_____________ hurdat_atl AL111964 17.6000 -85.0000 TD 30 -1 6 343
1964283N15277 1964 95 NA CS ISBELL 1964-10-10 09:00:00 TS 17.8650 -85.0651 main 223 223 P_____________ AL111964 17.8650 -85.0651 TD 30 -1 5 349
1964283N15277 1964 95 NA CS ISBELL 1964-10-10 12:00:00 TS 18.1000 -85.1000 30 hurdat_atl main 246 246 O_____________ hurdat_atl AL111964 18.1000 -85.1000 TD 30 -1 5 350
1964283N15277 1964 95 NA CS ISBELL 1964-10-10 15:00:00 TS 18.3075 -85.1500 main 261 254 P_____________ AL111964 18.3075 -85.1500 TD 30 -1 4 347
1964283N15277 1964 95 NA CS ISBELL 1964-10-10 18:00:00 TS 18.5000 -85.2000 30 1008 hurdat_atl main 254 247 O_____________ hurdat_atl AL111964 18.5000 -85.2000 TD 30 1008 -1 4 347
1964283N15277 1964 95 NA CS ISBELL 1964-10-10 21:00:00 TS 18.7075 -85.2500 main 238 230 P_____________ AL111964 18.7075 -85.2500 TD 32 -1 4 347
1964283N15277 1964 95 NA CS ISBELL 1964-10-11 00:00:00 TS 18.9000 -85.3000 35 hurdat_atl main 230 224 O_____________ hurdat_atl AL111964 18.9000 -85.3000 TS 35 0 4 344
1964283N15277 1964 95 NA CS ISBELL 1964-10-11 03:00:00 TS 19.0650 -85.3500 main 214 212 P_____________ AL111964 19.0650 -85.3500 TS 35 0 3 343
1964283N15277 1964 95 NA CS ISBELL 1964-10-11 06:00:00 TS 19.2000 -85.4000 35 hurdat_atl main 212 200 O_____________ hurdat_atl AL111964 19.2000 -85.4000 TS 35 0 3 338
1964283N15277 1964 95 NA CS ISBELL 1964-10-11 09:00:00 TS 19.3225 -85.4575 main 200 199 P_____________ AL111964 19.3225 -85.4575 TS 32 -1 2 333
1964283N15277 1964 95 NA CS ISBELL 1964-10-11 12:00:00 TS 19.4000 -85.5000 30 1009 hurdat_atl main 199 199 O_____________ hurdat_atl AL111964 19.4000 -85.5000 TD 30 1009 -1 1 343
1964283N15277 1964 95 NA CS ISBELL 1964-10-11 15:00:00 TS 19.4225 -85.5000 main 199 199 P_____________ AL111964 19.4225 -85.5000 TD 30 1008 -1 0 0
1964283N15277 1964 95 NA CS ISBELL 1964-10-11 18:00:00 TS 19.4000 -85.5000 30 hurdat_atl main 199 199 I_____________ hurdat_atl AL111964 19.4000 -85.5000 TD 30 1007 -1 1 215
1964283N15277 1964 95 NA CS ISBELL 1964-10-11 21:00:00 TS 19.3575 -85.5500 main 189 189 P_____________ AL111964 19.3575 -85.5500 TD 30 1006 -1 1 223
1964283N15277 1964 95 NA CS ISBELL 1964-10-12 00:00:00 TS 19.3000 -85.6000 30 1005 hurdat_atl main 190 190 O_____________ hurdat_atl AL111964 19.3000 -85.6000 TD 30 1005 -1 1 211
1964283N15277 1964 95 NA CS ISBELL 1964-10-12 03:00:00 TS 19.2350 -85.6225 main 191 191 P_____________ AL111964 19.2350 -85.6225 TD 30 -1 1 0
1964283N15277 1964 95 NA CS ISBELL 1964-10-12 06:00:00 TS 19.2000 -85.6000 30 hurdat_atl main 191 191 O_____________ hurdat_atl AL111964 19.2000 -85.6000 TD 30 -1 1 98
1964283N15277 1964 95 NA CS ISBELL 1964-10-12 09:00:00 TS 19.2200 -85.5150 main 202 200 P_____________ AL111964 19.2200 -85.5150 TD 32 -1 2 62
1964283N15277 1964 95 NA CS ISBELL 1964-10-12 12:00:00 TS 19.3000 -85.4000 35 hurdat_atl main 210 210 O_____________ hurdat_atl AL111964 19.3000 -85.4000 TS 35 0 3 44
1964283N15277 1964 95 NA CS ISBELL 1964-10-12 15:00:00 TS 19.4275 -85.3000 main 220 220 P_____________ AL111964 19.4275 -85.3000 TS 40 0 4 32
1964283N15277 1964 95 NA CS ISBELL 1964-10-12 18:00:00 TS 19.6000 -85.2000 45 hurdat_atl main 222 215 O_____________ hurdat_atl AL111964 19.6000 -85.2000 TS 45 0 4 28
1964283N15277 1964 95 NA CS ISBELL 1964-10-12 21:00:00 TS 19.7850 -85.1000 main 218 202 P_____________ AL111964 19.7850 -85.1000 TS 50 0 4 25
1964283N15277 1964 95 NA CS ISBELL 1964-10-13 00:00:00 TS 20.0000 -85.0000 55 996 hurdat_atl main 202 179 O_____________ hurdat_atl AL111964 20.0000 -85.0000 TS 55 996 0 5 23
1964283N15277 1964 95 NA CS ISBELL 1964-10-13 03:00:00 TS 20.2425 -84.8925 main 179 145 P_____________ AL111964 20.2425 -84.8925 TS 57 0 5 20
1964283N15277 1964 95 NA CS ISBELL 1964-10-13 06:00:00 TS 20.5000 -84.8000 60 hurdat_atl main 145 123 O_____________ hurdat_atl AL111964 20.5000 -84.8000 TS 60 0 5 15
1964283N15277 1964 95 NA CS ISBELL 1964-10-13 09:00:00 TS 20.7425 -84.7499 main 123 90 P_____________ AL111964 20.7425 -84.7499 TS 65 1 5 11
1964283N15277 1964 95 NA CS ISBELL 1964-10-13 12:00:00 TS 21.0000 -84.7000 70 hurdat_atl main 90 56 O_____________ hurdat_atl AL111964 21.0000 -84.7000 HU 70 1 6 16
1964283N15277 1964 95 NA CS ISBELL 1964-10-13 15:00:00 TS 21.2940 -84.5791 main 56 22 P_____________ AL111964 21.2940 -84.5791 HU 77 1 6 17
1964283N15277 1964 95 NA CS ISBELL 1964-10-13 18:00:00 TS 21.6000 -84.5000 85 hurdat_atl main 22 11 O_____________ hurdat_atl AL111964 21.6000 -84.5000 HU 85 2 6 9
1964283N15277 1964 95 NA CS ISBELL 1964-10-13 19:00:00 TS 21.7000 -84.5000 85 hurdat_atl main 11 0 O_____________ hurdat_atl AL111964 21.7000 -84.5000 L HU 85 2 7 16
1964283N15277 1964 95 NA NA ISBELL 1964-10-13 21:00:00 TS 21.9532 -84.3975 main 10 0 P_____________ AL111964 21.9532 -84.3975 HU 80 1 10 28
1964283N15277 1964 95 NA NA ISBELL 1964-10-14 00:00:00 TS 22.4000 -84.1000 75 979 hurdat_atl main 0 0 O_____________ hurdat_atl AL111964 22.4000 -84.1000 HU 75 979 1 10 30
1964283N15277 1964 95 NA GM ISBELL 1964-10-14 03:00:00 TS 22.8032 -83.8660 main 11 10 P_____________ AL111964 22.8032 -83.8660 HU 82 975 1 9 30
1964283N15277 1964 95 NA GM ISBELL 1964-10-14 06:00:00 TS 23.2000 -83.6000 90 hurdat_atl main 39 39 I_____________ hurdat_atl AL111964 23.2000 -83.6000 HU 90 971 2 9 35
1964283N15277 1964 95 NA GM ISBELL 1964-10-14 09:00:00 TS 23.5774 -83.2795 main 78 78 P_____________ AL111964 23.5774 -83.2795 HU 95 967 2 10 39
1964283N15277 1964 95 NA NA ISBELL 1964-10-14 12:00:00 TS 24.0000 -82.9000 100 964 hurdat_atl main 108 108 O_____________ hurdat_atl AL111964 24.0000 -82.9000 HU 100 964 3 12 38
1964283N15277 1964 95 NA NA ISBELL 1964-10-14 15:00:00 TS 24.4987 -82.4938 main 152 81 P_____________ AL111964 24.4987 -82.4938 HU 97 966 3 14 37
1964283N15277 1964 95 NA GM ISBELL 1964-10-14 18:00:00 TS 25.1000 -82.0000 95 968 hurdat_atl main 81 10 O_____________ hurdat_atl AL111964 25.1000 -82.0000 HU 95 968 2 16 37
1964283N15277 1964 95 NA GM ISBELL 1964-10-14 21:00:00 TS 25.8000 -81.4000 90 970 hurdat_atl main 10 0 O_____________ hurdat_atl AL111964 25.8000 -81.4000 L HU 90 970 2 18 44
1964283N15277 1964 95 NA NA ISBELL 1964-10-15 00:00:00 TS 26.4000 -80.6000 80 hurdat_atl main 0 0 O_____________ hurdat_atl AL111964 26.4000 -80.6000 HU 80 1 20 46
1964283N15277 1964 95 NA NA ISBELL 1964-10-15 03:00:00 TS 27.1793 -79.8264 main 37 37 P_____________ AL111964 27.1793 -79.8264 HU 80 1 21 40
1964283N15277 1964 95 NA NA ISBELL 1964-10-15 06:00:00 TS 28.0000 -79.1000 80 hurdat_atl main 135 135 O_____________ hurdat_atl AL111964 28.0000 -79.1000 HU 80 1 19 39
1964283N15277 1964 95 NA NA ISBELL 1964-10-15 09:00:00 TS 28.6795 -78.4263 main 205 205 P_____________ AL111964 28.6795 -78.4263 HU 80 1 17 41
1964283N15277 1964 95 NA NA ISBELL 1964-10-15 12:00:00 TS 29.3000 -77.8000 80 980 hurdat_atl main 277 277 O_____________ hurdat_atl AL111964 29.3000 -77.8000 HU 80 980 1 17 43
1964283N15277 1964 95 NA NA ISBELL 1964-10-15 15:00:00 TS 29.8852 -77.1398 main 364 364 P_____________ AL111964 29.8852 -77.1398 HU 77 983 1 16 41
1964283N15277 1964 95 NA NA ISBELL 1964-10-15 18:00:00 TS 30.5000 -76.6000 75 986 hurdat_atl main 384 340 O_____________ hurdat_atl AL111964 30.5000 -76.6000 HU 75 986 1 15 29
1964283N15277 1964 95 NA NA ISBELL 1964-10-15 21:00:00 TS 31.2346 -76.2817 main 340 276 P_____________ AL111964 31.2346 -76.2817 HU 75 988 1 16 16
1964283N15277 1964 95 NA NA ISBELL 1964-10-16 00:00:00 TS 32.0000 -76.1000 75 990 hurdat_atl main 276 229 O_____________ hurdat_atl AL111964 32.0000 -76.1000 HU 75 990 1 15 13
1964283N15277 1964 95 NA NA ISBELL 1964-10-16 03:00:00 TS 32.7298 -75.8610 main 229 158 P_____________ AL111964 32.7298 -75.8610 HU 75 990 1 14 10
1964283N15277 1964 95 NA NA ISBELL 1964-10-16 06:00:00 TS 33.4000 -75.8000 75 hurdat_atl main 158 100 I_____________ hurdat_atl AL111964 33.4000 -75.8000 HU 75 991 1 12 354
1964283N15277 1964 95 NA NA ISBELL 1964-10-16 09:00:00 TS 33.9544 -76.0223 main 90 22 P_____________ AL111964 33.9544 -76.0223 HU 67 991 1 12 332
1964283N15277 1964 95 NA NA ISBELL 1964-10-16 12:00:00 TS 34.5000 -76.5000 60 992 hurdat_atl main 22 0 O_____________ hurdat_atl AL111964 34.5000 -76.5000 TS 60 992 0 14 323
1964283N15277 1964 95 NA NA ISBELL 1964-10-16 13:00:00 TS 34.7000 -76.7000 60 992 hurdat_atl main 0 0 O_____________ hurdat_atl AL111964 34.7000 -76.7000 L TS 60 992 0 15 318
1964283N15277 1964 95 NA NA ISBELL 1964-10-16 15:00:00 TS 35.0533 -77.1045 main 0 0 P_____________ AL111964 35.0533 -77.1045 TS 49 0 14 314
1964283N15277 1964 95 NA NA ISBELL 1964-10-16 18:00:00 ET 35.5000 -77.7000 35 hurdat_atl main 0 O_____________ hurdat_atl AL111964 35.5000 -77.7000 EX 35 -4 13 313

IBTrACS Databaseについて

本データベースは、米国NOAAが公開する1842年以降の世界の熱帯低気圧のベストトラックデータアーカイブInternational Best Track Archive for Climate Stewardship (IBTrACS)を、ウェブで閲覧しやすい形式に変換したものです。

最終更新日:2021-12-03